Time;durP1;ratioP1;P1;durP2;ratioP2;P2;SDS_P1;SDS_P2;PMS_P1;PMS_P2;Temp;Humidity;BMP_temperature;BMP_pressure;BME280_temperature;BME280_humidity;BME280_pressure;Samples;Min_cycle;Max_cycle;Signal;HPM_P1;HPM_P2
2023/10/14 00:02:03;;;;;;;1.60;1.50;;;19.80;87.70;;;;;;5016114;28;20444;-84
2023/10/14 00:04:30;;;;;;;1.40;1.30;;;19.90;90.50;;;;;;5015884;28;20475;-84
2023/10/14 00:06:57;;;;;;;1.33;1.03;;;19.90;91.00;;;;;;5016158;28;20447;-84
2023/10/14 00:09:25;;;;;;;2.43;1.43;;;20.00;91.20;;;;;;5015625;28;20458;-83
2023/10/14 00:11:54;;;;;;;2.50;1.83;;;20.00;91.70;;;;;;5015875;28;20447;-84
2023/10/14 00:14:23;;;;;;;2.60;1.80;;;20.00;92.00;;;;;;5015401;28;20999;-83
2023/10/14 00:16:51;;;;;;;2.63;1.80;;;20.10;92.40;;;;;;5015999;28;20454;-83
2023/10/14 00:19:20;;;;;;;1.60;1.30;;;20.00;92.70;;;;;;5015113;28;20476;-83
2023/10/14 00:21:48;;;;;;;1.63;1.07;;;20.00;92.00;;;;;;5015819;28;20451;-83
2023/10/14 00:24:25;;;;;;;7.43;2.47;;;20.00;91.80;;;;;;5015773;28;20463;-83
2023/10/14 00:26:52;;;;;;;2.00;1.20;;;20.00;91.70;;;;;;5014722;28;20451;-83
2023/10/14 00:29:20;;;;;;;6.93;1.73;;;20.00;92.40;;;;;;5015080;28;20444;-83
2023/10/14 00:31:49;;;;;;;2.60;1.60;;;20.00;93.50;;;;;;5015392;28;20939;-83
2023/10/14 00:34:17;;;;;;;3.60;1.73;;;19.90;94.50;;;;;;5015518;28;20560;-83
2023/10/14 00:36:45;;;;;;;2.00;1.07;;;19.80;95.30;;;;;;5015159;28;20451;-83
2023/10/14 00:39:16;;;;;;;2.03;1.40;;;19.80;95.30;;;;;;5014918;28;20969;-83
2023/10/14 00:41:45;;;;;;;3.70;1.70;;;19.70;95.90;;;;;;5015532;28;20486;-83
2023/10/14 00:44:12;;;;;;;3.43;1.50;;;19.70;96.60;;;;;;5014883;28;20474;-83
2023/10/14 00:46:42;;;;;;;1.77;1.37;;;19.70;97.10;;;;;;5015425;28;20454;-83
2023/10/14 00:49:11;;;;;;;3.50;2.40;;;19.80;97.80;;;;;;5014676;28;20606;-83
2023/10/14 00:51:43;;;;;;;4.03;2.07;;;19.80;98.60;;;;;;5014765;28;20482;-83
2023/10/14 00:54:12;;;;;;;2.77;1.53;;;19.70;99.00;;;;;;5015166;28;20537;-83
2023/10/14 00:56:42;;;;;;;5.27;1.90;;;19.70;99.60;;;;;;5015215;28;20451;-83
2023/10/14 00:59:10;;;;;;;5.50;2.20;;;19.60;99.90;;;;;;5014666;28;20456;-83
2023/10/14 01:01:55;;;;;;;2.50;2.10;;;19.50;99.90;;;;;;5014491;28;20875;-83
2023/10/14 01:04:31;;;;;;;5.93;1.70;;;19.40;99.90;;;;;;5014875;28;20483;-83
2023/10/14 01:07:04;;;;;;;3.97;2.03;;;19.30;99.90;;;;;;5015109;28;20466;-84
2023/10/14 01:09:41;;;;;;;2.47;1.87;;;19.10;99.90;;;;;;5014711;28;20448;-83
2023/10/14 01:12:16;;;;;;;2.33;1.47;;;19.10;99.90;;;;;;5014283;28;20443;-84
2023/10/14 01:14:44;;;;;;;2.07;1.90;;;19.00;99.90;;;;;;5014485;28;20466;-83
2023/10/14 01:17:12;;;;;;;2.60;1.77;;;19.00;99.90;;;;;;5014552;28;20451;-83
2023/10/14 01:19:38;;;;;;;2.80;1.97;;;19.00;99.90;;;;;;5013958;28;20543;-83
2023/10/14 01:22:12;;;;;;;3.23;2.03;;;19.00;99.90;;;;;;5014364;28;20451;-83
2023/10/14 01:24:41;;;;;;;4.60;2.50;;;19.00;99.90;;;;;;5014802;28;20442;-83
2023/10/14 01:27:10;;;;;;;5.60;1.73;;;19.00;99.90;;;;;;5014173;28;20546;-83
2023/10/14 01:29:40;;;;;;;4.17;2.00;;;18.90;99.90;;;;;;5014456;28;20455;-83
2023/10/14 01:32:26;;;;;;;8.67;2.60;;;19.00;99.90;;;;;;5014329;28;20466;-83
2023/10/14 01:34:59;;;;;;;3.70;2.40;;;19.00;99.90;;;;;;5013733;28;20839;-83
2023/10/14 01:37:33;;;;;;;6.47;2.50;;;18.90;99.90;;;;;;5014259;28;20436;-82
2023/10/14 01:40:14;;;;;;;3.10;2.00;;;18.90;99.90;;;;;;5014474;28;20438;-83
2023/10/14 01:42:41;;;;;;;2.47;1.87;;;18.90;99.90;;;;;;5014050;28;20483;-83
2023/10/14 01:45:08;;;;;;;4.50;2.13;;;18.80;99.90;;;;;;5013062;28;20891;-83
2023/10/14 01:47:43;;;;;;;5.03;2.40;;;18.70;99.90;;;;;;5013975;28;20444;-83
2023/10/14 01:50:12;;;;;;;1.73;1.63;;;18.70;99.90;;;;;;5013788;28;20454;-84
2023/10/14 01:52:41;;;;;;;4.47;2.10;;;18.70;99.90;;;;;;5014126;28;20464;-83
2023/10/14 01:55:10;;;;;;;3.30;2.20;;;18.70;99.90;;;;;;5013576;28;20570;-83
2023/10/14 01:57:37;;;;;;;3.00;2.43;;;18.70;99.90;;;;;;5013842;28;20816;-83
2023/10/14 02:00:24;;;;;;;3.43;1.93;;;18.70;99.90;;;;;;5013631;28;20859;-83
2023/10/14 02:03:00;;;;;;;4.73;2.17;;;18.70;99.90;;;;;;5013556;28;20499;-83
2023/10/14 02:05:27;;;;;;;3.77;2.07;;;18.60;99.90;;;;;;5013810;28;20451;-83
2023/10/14 02:07:55;;;;;;;2.20;2.00;;;18.70;99.90;;;;;;5013753;28;21018;-83
2023/10/14 02:10:22;;;;;;;2.20;2.00;;;18.60;99.90;;;;;;5013614;28;20462;-83
2023/10/14 02:12:49;;;;;;;10.83;1.60;;;18.60;99.90;;;;;;5013308;28;21013;-83
2023/10/14 02:15:16;;;;;;;3.80;1.63;;;18.60;99.90;;;;;;5013032;28;20479;-84
2023/10/14 02:17:42;;;;;;;3.53;2.40;;;18.70;99.90;;;;;;5013469;28;20944;-83
2023/10/14 02:20:19;;;;;;;3.80;2.10;;;18.70;99.90;;;;;;5013033;28;20443;-83
2023/10/14 02:22:49;;;;;;;3.80;2.00;;;18.70;99.90;;;;;;5013521;28;20463;-83
2023/10/14 02:25:17;;;;;;;2.20;1.77;;;18.70;99.90;;;;;;5013726;28;20475;-83
2023/10/14 02:27:44;;;;;;;3.90;2.23;;;18.70;99.90;;;;;;5013746;28;20482;-83
2023/10/14 02:30:12;;;;;;;2.80;2.23;;;18.70;99.90;;;;;;5012873;28;20531;-83
2023/10/14 02:32:39;;;;;;;4.87;2.70;;;18.80;99.90;;;;;;5013655;28;20486;-83
2023/10/14 02:35:05;;;;;;;1.93;1.80;;;18.80;99.90;;;;;;5013617;28;20486;-84
2023/10/14 02:37:32;;;;;;;2.70;2.10;;;18.80;99.90;;;;;;5013099;28;20444;-83
2023/10/14 02:39:59;;;;;;;2.70;2.13;;;18.80;99.90;;;;;;5013062;28;20451;-83
2023/10/14 02:42:27;;;;;;;2.30;2.10;;;18.80;99.90;;;;;;5013459;28;20846;-84
2023/10/14 02:44:54;;;;;;;4.10;1.97;;;19.10;99.90;;;;;;5012877;28;20457;-84
2023/10/14 02:47:21;;;;;;;3.77;2.73;;;18.90;99.90;;;;;;5017578;28;20478;-83
2023/10/14 02:49:55;;;;;;;2.17;2.00;;;18.90;99.90;;;;;;5017053;28;20454;-83
2023/10/14 02:52:28;;;;;;;3.20;1.87;;;18.90;99.90;;;;;;5017390;28;21048;-83
2023/10/14 02:55:18;;;;;;;4.27;2.47;;;18.90;99.90;;;;;;5017454;28;20475;-83
2023/10/14 02:57:46;;;;;;;4.03;2.20;;;19.00;99.90;;;;;;5017008;28;20450;-84
2023/10/14 03:00:16;;;;;;;4.20;2.30;;;18.90;99.90;;;;;;5016686;28;20478;-84
2023/10/14 03:02:54;;;;;;;5.23;2.20;;;18.90;99.90;;;;;;5016324;28;20483;-83
2023/10/14 03:05:35;;;;;;;3.73;2.30;;;18.90;99.90;;;;;;5017070;28;20870;-83
2023/10/14 03:08:08;;;;;;;5.00;1.90;;;19.00;99.90;;;;;;5016995;28;20443;-83
2023/10/14 03:10:39;;;;;;;2.20;2.00;;;19.00;99.90;;;;;;5017687;28;20447;-83
2023/10/14 03:13:11;;;;;;;4.67;2.90;;;19.00;99.90;;;;;;5016946;28;20887;-83
2023/10/14 03:15:38;;;;;;;2.90;2.30;;;19.00;99.90;;;;;;5016132;28;20525;-83
2023/10/14 03:18:06;;;;;;;2.40;1.63;;;19.10;99.90;;;;;;5017429;28;20447;-83
2023/10/14 03:20:36;;;;;;;4.70;2.17;;;19.00;99.90;;;;;;5016252;28;20454;-83
2023/10/14 03:23:09;;;;;;;3.00;1.93;;;19.00;99.90;;;;;;5016663;28;20483;-83
2023/10/14 03:25:35;;;;;;;1.97;1.80;;;19.00;99.90;;;;;;5016749;28;20940;-83
2023/10/14 03:28:11;;;;;;;3.03;2.40;;;19.00;99.90;;;;;;5016890;28;20478;-83
2023/10/14 03:30:44;;;;;;;2.40;2.00;;;19.00;99.90;;;;;;5016438;28;20475;-83
2023/10/14 03:33:11;;;;;;;2.60;2.10;;;18.90;99.90;;;;;;5016192;28;20470;-83
2023/10/14 03:35:39;;;;;;;3.57;2.83;;;18.90;99.90;;;;;;5016367;28;20880;-83
2023/10/14 03:38:15;;;;;;;2.50;2.00;;;18.90;99.90;;;;;;5016734;28;20456;-84
2023/10/14 03:40:54;;;;;;;3.13;2.53;;;18.90;99.90;;;;;;4997072;28;20440;-83
2023/10/14 03:43:21;;;;;;;6.57;1.97;;;18.90;99.90;;;;;;5001530;28;20481;-83
2023/10/14 03:45:53;;;;;;;8.80;2.90;;;18.90;99.90;;;;;;5016025;28;20451;-83
2023/10/14 03:48:21;;;;;;;2.70;2.17;;;18.90;99.90;;;;;;5016272;28;20439;-84
2023/10/14 03:50:49;;;;;;;7.43;2.00;;;18.90;99.90;;;;;;5015841;28;20447;-83
2023/10/14 03:53:17;;;;;;;3.63;2.23;;;19.00;99.90;;;;;;5015911;28;20494;-83
2023/10/14 03:55:43;;;;;;;6.37;2.20;;;19.00;99.90;;;;;;5016061;28;21027;-83
2023/10/14 03:58:10;;;;;;;3.57;2.30;;;19.00;99.90;;;;;;5015787;28;20448;-83
2023/10/14 04:00:40;;;;;;;5.33;2.63;;;18.90;99.90;;;;;;5015867;28;20957;-83
2023/10/14 04:03:12;;;;;;;2.87;1.80;;;18.90;99.90;;;;;;5015695;28;20518;-83
2023/10/14 04:05:41;;;;;;;4.27;2.80;;;18.90;99.90;;;;;;5016199;28;20811;-83
2023/10/14 04:08:09;;;;;;;4.03;2.27;;;18.90;99.90;;;;;;5015907;28;20456;-83
2023/10/14 04:10:43;;;;;;;3.90;2.40;;;18.90;99.90;;;;;;5015754;28;20459;-83
2023/10/14 04:13:13;;;;;;;5.83;3.40;;;18.90;99.90;;;;;;5008821;28;20538;-83
2023/10/14 04:15:48;;;;;;;3.20;2.53;;;18.90;99.90;;;;;;5015146;28;21106;-83
2023/10/14 04:18:24;;;;;;;4.70;2.30;;;18.90;99.90;;;;;;5014679;28;20458;-83
2023/10/14 04:21:03;;;;;;;2.63;2.33;;;18.70;99.90;;;;;;5016190;28;20442;-83
2023/10/14 04:23:29;;;;;;;4.10;2.07;;;18.80;99.90;;;;;;5015742;28;20487;-82
2023/10/14 04:26:03;;;;;;;4.33;2.93;;;18.70;99.90;;;;;;5015576;28;20452;-83
2023/10/14 04:28:39;;;;;;;5.50;2.93;;;18.70;99.90;;;;;;5015837;28;20855;-84
2023/10/14 04:31:08;;;;;;;2.73;2.50;;;18.70;99.90;;;;;;5015111;28;20958;-83
2023/10/14 04:33:45;;;;;;;6.03;3.13;;;18.60;99.90;;;;;;5015346;28;20529;-83
2023/10/14 04:39:13;;;;;;;4.37;2.60;;;18.50;99.90;;;;;;5015659;28;20407;-84
2023/10/14 04:41:48;;;;;;;2.53;1.80;;;18.50;99.90;;;;;;5015611;28;20432;-83
2023/10/14 04:44:15;;;;;;;2.07;1.97;;;18.50;99.90;;;;;;5015007;28;20474;-83
2023/10/14 04:46:54;;;;;;;4.37;2.20;;;18.50;99.90;;;;;;5014717;28;20456;-83
2023/10/14 04:49:35;;;;;;;4.10;2.60;;;18.50;99.90;;;;;;5015137;28;20481;-83
2023/10/14 04:52:04;;;;;;;2.93;2.17;;;18.40;99.90;;;;;;5015029;28;20435;-83
2023/10/14 04:54:34;;;;;;;1.77;1.67;;;18.40;99.90;;;;;;4995642;28;20452;-84
2023/10/14 04:57:19;;;;;;;8.83;2.40;;;18.40;99.90;;;;;;5006756;28;20531;-83
2023/10/14 04:59:46;;;;;;;2.97;2.13;;;18.40;99.90;;;;;;5013926;28;20440;-83
2023/10/14 05:02:20;;;;;;;3.30;1.73;;;18.40;99.90;;;;;;5008085;28;20444;-83
2023/10/14 05:04:49;;;;;;;2.13;1.97;;;18.30;99.90;;;;;;5014485;28;21000;-83
2023/10/14 05:07:16;;;;;;;3.57;1.93;;;18.30;99.90;;;;;;5014845;28;20447;-84
2023/10/14 05:09:49;;;;;;;3.03;2.13;;;18.30;99.90;;;;;;5013752;28;20448;-83
2023/10/14 05:12:24;;;;;;;3.53;1.70;;;18.60;99.90;;;;;;5013871;28;20483;-83
2023/10/14 05:14:51;;;;;;;3.43;2.00;;;18.30;99.90;;;;;;5013347;28;20471;-83
2023/10/14 05:17:18;;;;;;;3.67;2.30;;;18.30;99.90;;;;;;5013361;28;20451;-83
2023/10/14 05:19:47;;;;;;;3.00;1.53;;;18.30;99.90;;;;;;5014766;28;20443;-83
2023/10/14 05:22:19;;;;;;;4.40;1.70;;;18.30;99.90;;;;;;5014602;28;20475;-83
2023/10/14 05:24:49;;;;;;;4.63;1.63;;;18.30;99.90;;;;;;5014756;28;20428;-83
2023/10/14 05:27:17;;;;;;;2.10;1.60;;;18.30;99.90;;;;;;5014097;28;20494;-83
2023/10/14 05:29:47;;;;;;;2.97;2.60;;;18.30;99.90;;;;;;5014273;28;20447;-83
2023/10/14 05:32:16;;;;;;;2.37;1.70;;;18.30;99.90;;;;;;5014257;28;20498;-83
2023/10/14 05:34:44;;;;;;;3.33;2.37;;;18.30;99.90;;;;;;5014497;28;20483;-83
2023/10/14 05:37:12;;;;;;;2.70;2.00;;;18.40;99.90;;;;;;5014235;28;20452;-83
2023/10/14 05:39:41;;;;;;;4.77;2.57;;;18.40;99.90;;;;;;5014243;28;20448;-83
2023/10/14 05:42:16;;;;;;;2.57;1.77;;;18.40;99.90;;;;;;5013863;28;20970;-83
2023/10/14 05:44:47;;;;;;;3.83;2.20;;;18.40;99.90;;;;;;5013824;28;20891;-83
2023/10/14 05:47:14;;;;;;;3.73;2.47;;;18.40;99.90;;;;;;5013931;28;20444;-83
2023/10/14 05:49:41;;;;;;;2.13;1.93;;;18.40;99.90;;;;;;5014021;28;20451;-83
2023/10/14 05:52:11;;;;;;;4.80;2.10;;;18.40;99.90;;;;;;5013662;28;20455;-83
2023/10/14 05:54:40;;;;;;;6.70;2.10;;;18.40;99.90;;;;;;5013398;28;20958;-83
2023/10/14 05:57:09;;;;;;;2.43;2.20;;;18.40;99.90;;;;;;5013907;28;20444;-83
2023/10/14 05:59:36;;;;;;;1.90;1.70;;;18.40;99.90;;;;;;5013897;28;20802;-83
2023/10/14 06:02:06;;;;;;;3.63;1.63;;;18.50;99.90;;;;;;5013740;28;20553;-83
2023/10/14 06:04:39;;;;;;;4.70;2.40;;;18.40;99.90;;;;;;5013439;28;20526;-83
2023/10/14 06:07:06;;;;;;;4.43;2.07;;;18.50;99.90;;;;;;5013235;28;20944;-83
2023/10/14 06:09:33;;;;;;;4.63;2.00;;;18.40;99.90;;;;;;5013712;28;20432;-83
2023/10/14 06:12:01;;;;;;;2.07;1.87;;;18.50;99.90;;;;;;5013760;28;20458;-83
2023/10/14 06:14:29;;;;;;;2.60;2.40;;;18.50;99.90;;;;;;5013605;28;20456;-83
2023/10/14 06:16:57;;;;;;;5.03;1.50;;;18.50;99.90;;;;;;5013520;28;20558;-83
2023/10/14 06:19:24;;;;;;;3.77;2.70;;;18.50;99.90;;;;;;5013849;28;20498;-83
2023/10/14 06:21:51;;;;;;;4.20;2.37;;;18.50;99.90;;;;;;5013558;28;20486;-83
2023/10/14 06:24:18;;;;;;;1.47;1.30;;;18.50;99.90;;;;;;5013275;28;20980;-83
2023/10/14 06:26:45;;;;;;;2.40;1.90;;;18.50;99.90;;;;;;5013740;28;20521;-83
2023/10/14 06:29:13;;;;;;;3.77;1.83;;;18.50;99.90;;;;;;5013437;28;20538;-83
2023/10/14 06:31:40;;;;;;;2.40;1.60;;;18.60;99.90;;;;;;5013415;28;20440;-83
2023/10/14 06:34:09;;;;;;;3.77;2.00;;;18.60;99.90;;;;;;5012741;28;21006;-83
2023/10/14 06:36:35;;;;;;;2.57;2.27;;;18.90;99.90;;;;;;5013144;28;20503;-83
2023/10/14 06:39:13;;;;;;;6.30;3.17;;;18.60;99.90;;;;;;5013643;28;20456;-84
2023/10/14 06:41:43;;;;;;;4.63;2.00;;;18.60;99.90;;;;;;5013298;28;20498;-84
2023/10/14 06:44:14;;;;;;;5.20;2.07;;;18.60;99.90;;;;;;5013110;28;20471;-84
2023/10/14 06:46:44;;;;;;;5.77;2.10;;;18.60;99.90;;;;;;5013573;28;20447;-84
2023/10/14 06:49:13;;;;;;;3.83;2.10;;;18.60;99.90;;;;;;5013535;28;20448;-84
2023/10/14 06:51:42;;;;;;;3.03;1.77;;;18.60;99.90;;;;;;5013236;28;20448;-84
2023/10/14 06:54:09;;;;;;;5.27;2.47;;;18.60;99.90;;;;;;5012919;28;20491;-84
2023/10/14 06:56:36;;;;;;;2.87;1.83;;;18.60;99.90;;;;;;5013390;28;20483;-84
2023/10/14 06:59:05;;;;;;;8.43;2.73;;;18.60;99.90;;;;;;5013063;28;20450;-84
2023/10/14 07:01:33;;;;;;;4.00;2.17;;;18.60;99.90;;;;;;5012483;28;20909;-83
2023/10/14 07:04:01;;;;;;;1.83;1.50;;;18.60;99.90;;;;;;5012475;28;20902;-83
2023/10/14 07:06:28;;;;;;;3.80;1.80;;;18.50;99.90;;;;;;5013100;28;20440;-83
2023/10/14 07:08:55;;;;;;;5.07;2.10;;;18.50;99.90;;;;;;5012965;28;20451;-83
2023/10/14 07:11:22;;;;;;;3.67;2.43;;;18.70;99.90;;;;;;5012209;28;20893;-83
2023/10/14 07:13:49;;;;;;;6.40;2.30;;;18.60;99.90;;;;;;5012843;28;20471;-83
2023/10/14 07:16:18;;;;;;;6.57;2.30;;;18.70;99.90;;;;;;5012445;28;20515;-83
2023/10/14 07:18:48;;;;;;;6.83;2.93;;;18.80;99.90;;;;;;5012931;28;20835;-83
2023/10/14 07:21:19;;;;;;;2.40;1.93;;;18.90;99.90;;;;;;5012822;28;20530;-83
2023/10/14 07:23:46;;;;;;;5.93;1.77;;;19.00;99.90;;;;;;5012736;28;20472;-83
2023/10/14 07:26:15;;;;;;;3.63;1.50;;;19.60;99.90;;;;;;5012716;28;20540;-83
2023/10/14 07:28:43;;;;;;;2.47;1.77;;;19.30;99.90;;;;;;5004674;28;20443;-84
2023/10/14 07:31:11;;;;;;;6.00;2.07;;;19.40;99.90;;;;;;5012752;28;20458;-84
2023/10/14 07:33:39;;;;;;;3.90;2.07;;;19.60;99.90;;;;;;5016751;28;20501;-84
2023/10/14 07:36:07;;;;;;;2.53;2.10;;;19.60;99.90;;;;;;5016390;28;21032;-84
2023/10/14 07:38:36;;;;;;;1.10;1.00;;;19.70;99.90;;;;;;5016734;28;20467;-83
2023/10/14 07:41:05;;;;;;;2.60;1.87;;;19.80;99.90;;;;;;5016422;28;20451;-84
2023/10/14 07:43:33;;;;;;;5.13;1.53;;;19.70;99.90;;;;;;5015933;28;21045;-84
2023/10/14 07:46:02;;;;;;;2.07;1.33;;;19.70;99.90;;;;;;5015904;28;20509;-84
2023/10/14 07:48:29;;;;;;;2.70;1.70;;;19.70;99.90;;;;;;5016130;28;20505;-84
2023/10/14 07:50:58;;;;;;;3.97;1.77;;;19.60;99.90;;;;;;5015940;28;20447;-84
2023/10/14 07:53:25;;;;;;;4.10;1.60;;;19.50;99.90;;;;;;5016403;28;20470;-84
2023/10/14 07:55:56;;;;;;;1.47;1.10;;;19.50;99.90;;;;;;5016061;28;20479;-84
2023/10/14 07:58:24;;;;;;;4.23;1.67;;;19.30;99.90;;;;;;5016416;28;20440;-84
2023/10/14 08:00:52;;;;;;;1.33;1.20;;;19.20;99.90;;;;;;5015832;28;20443;-84
2023/10/14 08:03:20;;;;;;;3.10;1.30;;;19.00;99.90;;;;;;5015576;28;20515;-84
2023/10/14 08:05:49;;;;;;;3.30;1.23;;;18.90;99.90;;;;;;5015964;28;20448;-84
2023/10/14 08:08:17;;;;;;;1.73;1.23;;;18.90;99.90;;;;;;5016197;28;20452;-84
2023/10/14 08:10:45;;;;;;;3.33;1.47;;;18.80;99.90;;;;;;5015746;28;20455;-84
2023/10/14 08:13:14;;;;;;;2.80;1.30;;;18.60;99.90;;;;;;5015683;28;20479;-84
2023/10/14 08:15:41;;;;;;;2.70;0.90;;;18.70;99.90;;;;;;5014855;28;21002;-85
2023/10/14 08:18:08;;;;;;;5.57;0.90;;;18.70;99.90;;;;;;5015400;28;20937;-84
2023/10/14 08:20:36;;;;;;;3.20;1.43;;;18.70;99.90;;;;;;5015926;28;20455;-84
2023/10/14 08:23:09;;;;;;;3.40;1.50;;;18.80;99.90;;;;;;5015538;28;20579;-84
2023/10/14 08:25:36;;;;;;;2.97;1.73;;;18.70;99.90;;;;;;5015379;28;20513;-84
2023/10/14 08:28:04;;;;;;;5.83;1.43;;;18.60;99.90;;;;;;5007611;28;20451;-84
2023/10/14 08:30:34;;;;;;;3.83;1.60;;;18.50;99.90;;;;;;5014180;28;20447;-84
2023/10/14 08:33:02;;;;;;;10.63;1.90;;;18.50;99.90;;;;;;5012778;28;20471;-84
2023/10/14 08:35:29;;;;;;;2.60;1.70;;;18.60;99.90;;;;;;5014818;28;20451;-84
2023/10/14 08:37:58;;;;;;;3.77;1.97;;;18.50;99.90;;;;;;5013767;28;20462;-84
2023/10/14 08:40:26;;;;;;;3.00;1.70;;;18.60;99.90;;;;;;5014542;28;20979;-84
2023/10/14 08:42:57;;;;;;;1.20;1.20;;;18.90;99.90;;;;;;5014526;28;20884;-84
2023/10/14 08:45:26;;;;;;;2.40;1.37;;;19.20;99.90;;;;;;5014571;28;20461;-84
2023/10/14 08:47:58;;;;;;;2.83;1.80;;;19.60;99.90;;;;;;5015383;28;20451;-84
2023/10/14 08:50:29;;;;;;;2.20;2.00;;;20.10;99.90;;;;;;5014381;28;20502;-83
2023/10/14 08:52:57;;;;;;;3.80;1.40;;;21.00;99.90;;;;;;5009365;28;21055;-85
2023/10/14 08:55:24;;;;;;;2.77;1.70;;;22.10;99.90;;;;;;5013990;28;20451;-84
2023/10/14 08:57:52;;;;;;;1.90;1.40;;;23.30;99.90;;;;;;5013928;28;20482;-84
2023/10/14 09:00:20;;;;;;;3.33;2.07;;;23.50;99.90;;;;;;5014781;28;20451;-84
2023/10/14 09:02:49;;;;;;;4.50;1.63;;;23.40;99.90;;;;;;5014741;28;20490;-84
2023/10/14 09:05:18;;;;;;;2.20;1.57;;;22.90;99.90;;;;;;5012859;28;20490;-85
2023/10/14 09:07:46;;;;;;;4.50;1.53;;;22.20;99.90;;;;;;5014375;28;20542;-84
2023/10/14 09:10:15;;;;;;;1.57;1.30;;;21.60;99.90;;;;;;5014093;28;20505;-85
2023/10/14 09:12:57;;;;;;;4.67;2.20;;;21.10;99.90;;;;;;5014630;28;20533;-85
2023/10/14 09:15:26;;;;;;;1.40;1.20;;;21.20;99.90;;;;;;5014033;28;20451;-85
2023/10/14 09:17:55;;;;;;;2.33;1.63;;;21.50;99.90;;;;;;5012410;28;20475;-85
2023/10/14 09:20:31;;;;;;;1.27;1.17;;;21.90;99.90;;;;;;5013553;28;20501;-85
2023/10/14 09:23:13;;;;;;;3.23;1.07;;;22.20;99.90;;;;;;5014326;28;20461;-85
2023/10/14 09:25:42;;;;;;;1.60;1.30;;;22.00;99.90;;;;;;5014592;28;20415;-85
2023/10/14 09:28:09;;;;;;;5.83;1.27;;;21.80;99.90;;;;;;5013805;28;20443;-86
2023/10/14 09:30:36;;;;;;;0.60;0.60;;;21.50;99.90;;;;;;5013579;28;20794;-88
2023/10/14 09:33:03;;;;;;;1.70;0.60;;;20.90;99.90;;;;;;5014450;28;20549;-87
2023/10/14 09:35:31;;;;;;;0.80;0.30;;;20.00;99.90;;;;;;5013726;28;20458;-84
2023/10/14 09:37:59;;;;;;;1.07;0.30;;;19.00;99.90;;;;;;5014050;28;20480;-81
2023/10/14 09:40:26;;;;;;;0.50;0.30;;;18.20;99.90;;;;;;5015366;28;20455;-85
2023/10/14 09:42:54;;;;;;;0.30;0.30;;;17.60;99.90;;;;;;5014732;28;20479;-87
2023/10/14 09:45:22;;;;;;;0.63;0.40;;;17.00;99.90;;;;;;5014994;28;20790;-86
2023/10/14 09:47:51;;;;;;;0.30;0.30;;;16.60;99.90;;;;;;5024515;28;20452;-87
2023/10/14 09:50:17;;;;;;;0.30;0.30;;;16.30;99.90;;;;;;5015259;28;20768;-85
2023/10/14 09:52:47;;;;;;;8.80;0.50;;;16.30;99.90;;;;;;5014350;28;20470;-84
2023/10/14 09:55:15;;;;;;;0.40;0.30;;;16.00;99.90;;;;;;5013824;28;20444;-85
2023/10/14 09:57:44;;;;;;;0.40;0.30;;;15.90;99.90;;;;;;5014041;28;20483;-85
2023/10/14 10:00:13;;;;;;;0.80;0.40;;;16.20;99.90;;;;;;5014202;28;20440;-85
2023/10/14 10:02:43;;;;;;;0.57;0.40;;;15.90;99.90;;;;;;5014054;28;20472;-85
2023/10/14 10:05:16;;;;;;;0.40;0.30;;;15.90;99.90;;;;;;5014133;28;20519;-85
2023/10/14 10:07:54;;;;;;;0.40;0.40;;;15.80;99.90;;;;;;5013811;28;20432;-85
2023/10/14 10:10:25;;;;;;;0.50;0.30;;;15.90;99.90;;;;;;5014064;28;20431;-85
2023/10/14 10:12:55;;;;;;;0.40;0.30;;;15.90;99.90;;;;;;5013625;28;20500;-85
2023/10/14 10:15:24;;;;;;;0.40;0.30;;;15.80;99.90;;;;;;5013993;28;20455;-85
2023/10/14 10:17:57;;;;;;;0.40;0.33;;;15.80;99.90;;;;;;5013848;28;20483;-85
2023/10/14 10:20:28;;;;;;;0.40;0.30;;;15.90;99.90;;;;;;5013534;28;20967;-86
2023/10/14 10:23:01;;;;;;;0.50;0.30;;;15.90;99.90;;;;;;5013749;28;20464;-85
2023/10/14 10:25:49;;;;;;;0.30;0.30;;;15.90;99.90;;;;;;5013467;28;20490;-85
2023/10/14 10:28:37;;;;;;;0.30;0.30;;;15.80;99.90;;;;;;5013740;28;20940;-86
2023/10/14 10:31:07;;;;;;;0.40;0.30;;;15.90;99.90;;;;;;5010536;28;20444;-85
2023/10/14 10:33:55;;;;;;;0.40;0.30;;;16.10;99.90;;;;;;5013704;28;20463;-85
2023/10/14 10:36:24;;;;;;;0.30;0.30;;;16.00;99.90;;;;;;5013557;28;20479;-85
2023/10/14 10:38:54;;;;;;;0.40;0.33;;;15.90;99.90;;;;;;5013741;28;20491;-85
2023/10/14 10:41:25;;;;;;;0.40;0.30;;;15.90;99.90;;;;;;5014310;28;20443;-85
2023/10/14 10:43:53;;;;;;;0.30;0.20;;;15.80;99.90;;;;;;5013585;28;20467;-85
2023/10/14 10:46:30;;;;;;;0.40;0.40;;;15.70;99.90;;;;;;5013362;28;20455;-85
2023/10/14 10:48:57;;;;;;;0.30;0.30;;;15.70;99.90;;;;;;5013495;28;20648;-85
2023/10/14 10:51:31;;;;;;;0.30;0.30;;;15.60;99.90;;;;;;5013194;28;20462;-85
2023/10/14 10:54:03;;;;;;;0.30;0.30;;;15.50;99.90;;;;;;5013463;28;20472;-84
2023/10/14 10:56:31;;;;;;;0.30;0.30;;;15.40;99.90;;;;;;5013361;28;20478;-85
2023/10/14 10:59:04;;;;;;;0.30;0.30;;;15.50;99.90;;;;;;5013385;28;20455;-85
2023/10/14 11:01:32;;;;;;;0.30;0.30;;;15.30;99.90;;;;;;5013458;28;20459;-85
2023/10/14 11:04:00;;;;;;;0.90;0.50;;;15.40;99.90;;;;;;5012937;28;20553;-84
2023/10/14 11:06:29;;;;;;;0.40;0.40;;;15.30;99.90;;;;;;5014157;28;20455;-85
2023/10/14 11:08:57;;;;;;;0.40;0.40;;;15.30;99.90;;;;;;5017276;28;20867;-84
2023/10/14 11:11:31;;;;;;;0.40;0.30;;;15.30;99.90;;;;;;5017260;28;20447;-84
2023/10/14 11:14:00;;;;;;;0.40;0.30;;;15.30;99.90;;;;;;5017430;28;20479;-84
2023/10/14 11:24:12;;;;;;;0.40;0.30;;;15.20;99.90;;;;;;5002331;28;20459;-83
2023/10/14 11:27:35;;;;;;;0.40;0.30;;;15.20;99.90;;;;;;5016594;28;20447;-83
2023/10/14 11:58:31;;;;;;;0.30;0.30;;;15.60;99.90;;;;;;4799201;29;20489;-82
2023/10/14 12:03:56;;;;;;;0.47;0.43;;;15.30;99.90;;;;;;4842611;29;20466;-82
2023/10/14 12:06:22;;;;;;;0.30;0.30;;;15.60;99.90;;;;;;4887503;29;20463;-82
2023/10/14 12:08:53;;;;;;;0.40;0.40;;;15.50;99.90;;;;;;4975343;28;20450;-82
2023/10/14 12:11:19;;;;;;;0.30;0.30;;;15.50;99.90;;;;;;5015894;28;20943;-82
2023/10/14 12:13:50;;;;;;;0.30;0.30;;;15.50;99.90;;;;;;5016036;28;20521;-82
2023/10/14 12:16:21;;;;;;;0.40;0.30;;;15.60;99.90;;;;;;5016074;28;20441;-82
2023/10/14 12:18:54;;;;;;;0.40;0.30;;;15.40;99.90;;;;;;5015382;28;20475;-82
2023/10/14 12:21:22;;;;;;;0.40;0.40;;;15.40;99.90;;;;;;5016041;28;20509;-82
2023/10/14 12:23:48;;;;;;;0.30;0.30;;;15.20;99.90;;;;;;5015814;28;20467;-82
2023/10/14 12:26:15;;;;;;;1.03;0.33;;;15.30;99.90;;;;;;5015549;28;20936;-82
2023/10/14 12:28:42;;;;;;;0.40;0.30;;;15.20;99.90;;;;;;5015768;28;20460;-82
2023/10/14 12:31:12;;;;;;;0.40;0.30;;;15.20;99.90;;;;;;5015736;28;20444;-82
2023/10/14 12:33:39;;;;;;;0.30;0.27;;;15.10;99.90;;;;;;5015394;28;20487;-82
2023/10/14 12:36:09;;;;;;;0.40;0.40;;;15.20;99.90;;;;;;5016208;28;20458;-82
2023/10/14 12:38:36;;;;;;;0.30;0.30;;;15.10;99.90;;;;;;5015572;28;20479;-82
2023/10/14 12:41:06;;;;;;;0.30;0.30;;;15.20;99.90;;;;;;5015577;28;20482;-82
2023/10/14 12:43:36;;;;;;;0.40;0.30;;;15.10;99.90;;;;;;5015478;28;20474;-82
2023/10/14 12:46:12;;;;;;;0.40;0.30;;;15.10;99.90;;;;;;5015539;28;20479;-82
2023/10/14 12:48:42;;;;;;;0.40;0.33;;;15.10;99.90;;;;;;5015441;28;20503;-82
2023/10/14 12:51:11;;;;;;;0.40;0.30;;;15.00;99.90;;;;;;5015626;28;20457;-82
2023/10/14 12:53:45;;;;;;;0.30;0.30;;;15.00;99.90;;;;;;5014975;28;20844;-82
2023/10/14 12:56:14;;;;;;;0.40;0.30;;;14.80;99.90;;;;;;5015357;28;20428;-81
2023/10/14 12:58:42;;;;;;;0.40;0.37;;;14.70;99.90;;;;;;5014884;28;21022;-82
2023/10/14 13:01:13;;;;;;;0.40;0.30;;;14.70;99.90;;;;;;5015242;28;20448;-82
2023/10/14 13:03:45;;;;;;;0.40;0.30;;;14.40;99.90;;;;;;5014955;28;20898;-82
2023/10/14 13:06:13;;;;;;;0.40;0.40;;;14.30;99.90;;;;;;5015170;28;20519;-82
2023/10/14 13:08:40;;;;;;;0.30;0.30;;;14.30;99.90;;;;;;5014786;28;20940;-81
2023/10/14 13:11:07;;;;;;;0.40;0.30;;;14.20;99.90;;;;;;5015005;28;20447;-82
2023/10/14 13:13:34;;;;;;;0.40;0.40;;;14.10;99.90;;;;;;5014901;28;20555;-82
2023/10/14 13:16:01;;;;;;;0.40;0.40;;;14.00;99.90;;;;;;5014994;28;20562;-82
2023/10/14 13:18:27;;;;;;;0.30;0.30;;;13.90;99.90;;;;;;5014835;28;20487;-82
2023/10/14 13:20:58;;;;;;;0.40;0.30;;;13.90;99.90;;;;;;5014828;28;20447;-82
2023/10/14 13:23:26;;;;;;;0.40;0.30;;;13.80;99.90;;;;;;5014438;28;20467;-82
2023/10/14 13:25:56;;;;;;;1.83;0.50;;;13.80;99.90;;;;;;5014732;28;20460;-82
2023/10/14 13:28:22;;;;;;;0.80;0.37;;;13.80;99.90;;;;;;5014707;28;20443;-81
2023/10/14 13:30:49;;;;;;;0.50;0.50;;;13.80;99.90;;;;;;5014035;28;20455;-81
2023/10/14 13:33:17;;;;;;;0.50;0.50;;;13.80;99.90;;;;;;5014003;28;21003;-81
2023/10/14 13:35:45;;;;;;;1.03;0.57;;;13.80;99.90;;;;;;5014273;28;20443;-81
2023/10/14 13:38:13;;;;;;;0.70;0.30;;;13.70;99.90;;;;;;5014356;28;20511;-81
2023/10/14 13:40:41;;;;;;;0.57;0.47;;;13.70;99.90;;;;;;5014173;28;20531;-80
2023/10/14 13:43:13;;;;;;;0.40;0.40;;;13.60;99.90;;;;;;5013585;28;20479;-82
2023/10/14 13:45:41;;;;;;;0.53;0.40;;;13.60;99.90;;;;;;5013303;28;20527;-81